sensor_id;sensor_type;location;lat;lon;timestamp;P1;durP1;ratioP1;P2;durP2;ratioP2
78122;SDS011;67376;44.802;10.332;2023-05-10T00:01:42;7.40;;;3.13;;
78122;SDS011;67376;44.802;10.332;2023-05-10T00:04:07;3.80;;;2.92;;
78122;SDS011;67376;44.802;10.332;2023-05-10T00:06:33;4.00;;;3.10;;
78122;SDS011;67376;44.802;10.332;2023-05-10T00:08:58;6.00;;;3.38;;
78122;SDS011;67376;44.802;10.332;2023-05-10T00:11:23;3.25;;;2.85;;
78122;SDS011;67376;44.802;10.332;2023-05-10T00:13:49;5.82;;;3.20;;
78122;SDS011;67376;44.802;10.332;2023-05-10T00:16:14;4.57;;;3.35;;
78122;SDS011;67376;44.802;10.332;2023-05-10T00:18:40;3.60;;;2.78;;
78122;SDS011;67376;44.802;10.332;2023-05-10T00:21:05;4.53;;;3.28;;
78122;SDS011;67376;44.802;10.332;2023-05-10T00:23:31;4.60;;;3.15;;
78122;SDS011;67376;44.802;10.332;2023-05-10T00:25:56;5.75;;;3.28;;
78122;SDS011;67376;44.802;10.332;2023-05-10T00:28:22;4.72;;;3.20;;
78122;SDS011;67376;44.802;10.332;2023-05-10T00:30:47;5.05;;;3.50;;
78122;SDS011;67376;44.802;10.332;2023-05-10T00:33:13;4.43;;;2.75;;
78122;SDS011;67376;44.802;10.332;2023-05-10T00:35:38;4.22;;;3.05;;
78122;SDS011;67376;44.802;10.332;2023-05-10T00:38:03;4.68;;;3.25;;
78122;SDS011;67376;44.802;10.332;2023-05-10T00:40:29;6.03;;;3.55;;
78122;SDS011;67376;44.802;10.332;2023-05-10T00:42:55;3.90;;;2.90;;
78122;SDS011;67376;44.802;10.332;2023-05-10T00:45:21;4.63;;;3.15;;
78122;SDS011;67376;44.802;10.332;2023-05-10T00:47:47;5.13;;;3.53;;
78122;SDS011;67376;44.802;10.332;2023-05-10T00:50:13;5.93;;;3.45;;
78122;SDS011;67376;44.802;10.332;2023-05-10T00:52:39;5.90;;;3.38;;
78122;SDS011;67376;44.802;10.332;2023-05-10T00:55:05;4.93;;;3.30;;
78122;SDS011;67376;44.802;10.332;2023-05-10T00:57:31;5.13;;;3.28;;
78122;SDS011;67376;44.802;10.332;2023-05-10T00:59:57;4.22;;;3.72;;
78122;SDS011;67376;44.802;10.332;2023-05-10T01:02:24;6.10;;;3.45;;
78122;SDS011;67376;44.802;10.332;2023-05-10T01:04:49;5.90;;;3.30;;
78122;SDS011;67376;44.802;10.332;2023-05-10T01:07:16;3.85;;;3.00;;
78122;SDS011;67376;44.802;10.332;2023-05-10T01:09:42;4.68;;;3.33;;
78122;SDS011;67376;44.802;10.332;2023-05-10T01:12:07;4.82;;;3.75;;
78122;SDS011;67376;44.802;10.332;2023-05-10T01:14:33;4.78;;;3.28;;
78122;SDS011;67376;44.802;10.332;2023-05-10T01:17:01;4.72;;;3.20;;
78122;SDS011;67376;44.802;10.332;2023-05-10T01:19:29;5.38;;;3.30;;
78122;SDS011;67376;44.802;10.332;2023-05-10T01:22:39;5.05;;;3.42;;
78122;SDS011;67376;44.802;10.332;2023-05-10T01:27:47;5.25;;;3.05;;
78122;SDS011;67376;44.802;10.332;2023-05-10T01:35:32;4.15;;;3.20;;
78122;SDS011;67376;44.802;10.332;2023-05-10T01:43:26;4.88;;;3.42;;
78122;SDS011;67376;44.802;10.332;2023-05-10T01:48:36;6.15;;;3.85;;
78122;SDS011;67376;44.802;10.332;2023-05-10T01:51:05;4.80;;;3.38;;
78122;SDS011;67376;44.802;10.332;2023-05-10T01:53:31;5.10;;;3.40;;
78122;SDS011;67376;44.802;10.332;2023-05-10T01:56:02;4.50;;;3.55;;
78122;SDS011;67376;44.802;10.332;2023-05-10T01:58:32;3.85;;;3.25;;
78122;SDS011;67376;44.802;10.332;2023-05-10T02:01:01;5.05;;;3.22;;
78122;SDS011;67376;44.802;10.332;2023-05-10T02:03:29;4.65;;;2.92;;
78122;SDS011;67376;44.802;10.332;2023-05-10T02:08:23;4.22;;;3.13;;
78122;SDS011;67376;44.802;10.332;2023-05-10T02:10:51;4.03;;;3.05;;
78122;SDS011;67376;44.802;10.332;2023-05-10T02:13:18;4.43;;;3.00;;
78122;SDS011;67376;44.802;10.332;2023-05-10T02:15:46;4.57;;;3.15;;
78122;SDS011;67376;44.802;10.332;2023-05-10T02:18:13;5.32;;;3.33;;
78122;SDS011;67376;44.802;10.332;2023-05-10T02:20:40;7.82;;;3.35;;
78122;SDS011;67376;44.802;10.332;2023-05-10T02:23:07;6.57;;;3.13;;
78122;SDS011;67376;44.802;10.332;2023-05-10T02:25:34;6.00;;;3.25;;
78122;SDS011;67376;44.802;10.332;2023-05-10T02:28:03;4.63;;;3.03;;
78122;SDS011;67376;44.802;10.332;2023-05-10T02:30:31;4.68;;;3.25;;
78122;SDS011;67376;44.802;10.332;2023-05-10T02:32:58;4.85;;;3.00;;
78122;SDS011;67376;44.802;10.332;2023-05-10T02:35:25;5.07;;;3.22;;
78122;SDS011;67376;44.802;10.332;2023-05-10T02:37:51;4.10;;;2.90;;
78122;SDS011;67376;44.802;10.332;2023-05-10T02:40:18;4.97;;;3.40;;
78122;SDS011;67376;44.802;10.332;2023-05-10T02:42:46;4.65;;;3.00;;
78122;SDS011;67376;44.802;10.332;2023-05-10T02:45:14;4.57;;;2.80;;
78122;SDS011;67376;44.802;10.332;2023-05-10T02:47:43;4.80;;;3.00;;
78122;SDS011;67376;44.802;10.332;2023-05-10T02:50:08;4.63;;;3.13;;
78122;SDS011;67376;44.802;10.332;2023-05-10T02:52:57;4.05;;;3.10;;
78122;SDS011;67376;44.802;10.332;2023-05-10T02:55:25;3.70;;;2.80;;
78122;SDS011;67376;44.802;10.332;2023-05-10T02:57:58;4.22;;;3.20;;
78122;SDS011;67376;44.802;10.332;2023-05-10T03:00:25;3.53;;;2.65;;
78122;SDS011;67376;44.802;10.332;2023-05-10T03:02:51;5.50;;;2.95;;
78122;SDS011;67376;44.802;10.332;2023-05-10T03:05:17;4.38;;;3.08;;
78122;SDS011;67376;44.802;10.332;2023-05-10T03:07:43;4.18;;;2.60;;
78122;SDS011;67376;44.802;10.332;2023-05-10T03:10:09;3.78;;;3.05;;
78122;SDS011;67376;44.802;10.332;2023-05-10T03:12:41;3.90;;;2.75;;
78122;SDS011;67376;44.802;10.332;2023-05-10T03:18:15;4.15;;;2.78;;
78122;SDS011;67376;44.802;10.332;2023-05-10T03:21:02;3.97;;;2.50;;
78122;SDS011;67376;44.802;10.332;2023-05-10T03:23:40;4.47;;;2.60;;
78122;SDS011;67376;44.802;10.332;2023-05-10T03:26:08;3.70;;;2.47;;
78122;SDS011;67376;44.802;10.332;2023-05-10T03:28:34;4.05;;;2.80;;
78122;SDS011;67376;44.802;10.332;2023-05-10T03:31:01;3.80;;;2.65;;
78122;SDS011;67376;44.802;10.332;2023-05-10T03:33:29;4.05;;;2.47;;
78122;SDS011;67376;44.802;10.332;2023-05-10T03:35:54;3.55;;;2.60;;
78122;SDS011;67376;44.802;10.332;2023-05-10T03:38:20;3.63;;;2.50;;
78122;SDS011;67376;44.802;10.332;2023-05-10T03:40:45;3.40;;;2.63;;
78122;SDS011;67376;44.802;10.332;2023-05-10T03:43:10;3.63;;;2.72;;
78122;SDS011;67376;44.802;10.332;2023-05-10T03:45:36;3.67;;;2.55;;
78122;SDS011;67376;44.802;10.332;2023-05-10T03:48:01;4.25;;;2.33;;
78122;SDS011;67376;44.802;10.332;2023-05-10T03:50:26;3.90;;;3.00;;
78122;SDS011;67376;44.802;10.332;2023-05-10T03:52:52;3.40;;;2.30;;
78122;SDS011;67376;44.802;10.332;2023-05-10T03:55:17;4.93;;;2.58;;
78122;SDS011;67376;44.802;10.332;2023-05-10T03:57:43;2.80;;;2.33;;
78122;SDS011;67376;44.802;10.332;2023-05-10T04:00:09;6.43;;;2.38;;
78122;SDS011;67376;44.802;10.332;2023-05-10T04:02:35;3.88;;;2.85;;
78122;SDS011;67376;44.802;10.332;2023-05-10T04:05:00;3.72;;;2.30;;
78122;SDS011;67376;44.802;10.332;2023-05-10T04:07:26;4.18;;;2.10;;
78122;SDS011;67376;44.802;10.332;2023-05-10T04:09:51;4.00;;;2.40;;
78122;SDS011;67376;44.802;10.332;2023-05-10T04:12:17;3.03;;;2.47;;
78122;SDS011;67376;44.802;10.332;2023-05-10T04:14:42;3.50;;;2.60;;
78122;SDS011;67376;44.802;10.332;2023-05-10T04:17:08;3.83;;;2.45;;
78122;SDS011;67376;44.802;10.332;2023-05-10T04:19:33;3.35;;;2.17;;
78122;SDS011;67376;44.802;10.332;2023-05-10T04:21:58;3.70;;;2.10;;
78122;SDS011;67376;44.802;10.332;2023-05-10T04:24:24;3.95;;;2.45;;
78122;SDS011;67376;44.802;10.332;2023-05-10T04:26:49;3.17;;;2.40;;
78122;SDS011;67376;44.802;10.332;2023-05-10T04:29:15;3.45;;;2.35;;
78122;SDS011;67376;44.802;10.332;2023-05-10T04:31:40;3.92;;;2.50;;
78122;SDS011;67376;44.802;10.332;2023-05-10T04:34:06;3.65;;;2.78;;
78122;SDS011;67376;44.802;10.332;2023-05-10T04:36:31;3.60;;;2.88;;
78122;SDS011;67376;44.802;10.332;2023-05-10T04:38:58;3.65;;;2.58;;
78122;SDS011;67376;44.802;10.332;2023-05-10T04:41:24;4.00;;;2.80;;
78122;SDS011;67376;44.802;10.332;2023-05-10T04:43:50;3.72;;;2.58;;
78122;SDS011;67376;44.802;10.332;2023-05-10T04:46:15;4.07;;;2.83;;
78122;SDS011;67376;44.802;10.332;2023-05-10T04:48:41;2.50;;;2.20;;
78122;SDS011;67376;44.802;10.332;2023-05-10T04:51:06;4.38;;;2.40;;
78122;SDS011;67376;44.802;10.332;2023-05-10T04:53:31;3.15;;;2.67;;
78122;SDS011;67376;44.802;10.332;2023-05-10T04:55:57;3.67;;;2.47;;
78122;SDS011;67376;44.802;10.332;2023-05-10T04:58:22;3.92;;;2.25;;
78122;SDS011;67376;44.802;10.332;2023-05-10T05:00:48;3.33;;;2.22;;
78122;SDS011;67376;44.802;10.332;2023-05-10T05:03:13;5.22;;;2.40;;
78122;SDS011;67376;44.802;10.332;2023-05-10T05:05:38;3.42;;;2.30;;
78122;SDS011;67376;44.802;10.332;2023-05-10T05:08:05;3.28;;;2.30;;
78122;SDS011;67376;44.802;10.332;2023-05-10T05:10:30;4.10;;;2.55;;
78122;SDS011;67376;44.802;10.332;2023-05-10T05:12:55;3.28;;;2.28;;
78122;SDS011;67376;44.802;10.332;2023-05-10T05:15:21;4.68;;;2.28;;
78122;SDS011;67376;44.802;10.332;2023-05-10T05:17:46;4.22;;;2.30;;
78122;SDS011;67376;44.802;10.332;2023-05-10T05:20:12;2.78;;;2.13;;
78122;SDS011;67376;44.802;10.332;2023-05-10T05:22:38;3.22;;;2.28;;
78122;SDS011;67376;44.802;10.332;2023-05-10T05:25:03;5.28;;;2.33;;
78122;SDS011;67376;44.802;10.332;2023-05-10T05:27:29;2.80;;;2.17;;
78122;SDS011;67376;44.802;10.332;2023-05-10T05:29:55;2.90;;;2.22;;
78122;SDS011;67376;44.802;10.332;2023-05-10T05:32:22;5.65;;;2.10;;
78122;SDS011;67376;44.802;10.332;2023-05-10T05:34:48;3.65;;;2.38;;
78122;SDS011;67376;44.802;10.332;2023-05-10T05:37:17;3.05;;;2.20;;
78122;SDS011;67376;44.802;10.332;2023-05-10T05:39:43;3.83;;;2.80;;
78122;SDS011;67376;44.802;10.332;2023-05-10T05:42:09;3.40;;;2.38;;
78122;SDS011;67376;44.802;10.332;2023-05-10T05:44:35;3.10;;;2.30;;
78122;SDS011;67376;44.802;10.332;2023-05-10T05:47:01;4.50;;;2.60;;
78122;SDS011;67376;44.802;10.332;2023-05-10T05:49:26;3.05;;;2.47;;
78122;SDS011;67376;44.802;10.332;2023-05-10T05:51:52;5.85;;;2.33;;
78122;SDS011;67376;44.802;10.332;2023-05-10T05:54:17;5.03;;;2.88;;
78122;SDS011;67376;44.802;10.332;2023-05-10T05:56:42;4.50;;;2.60;;
78122;SDS011;67376;44.802;10.332;2023-05-10T05:59:09;4.40;;;2.45;;
78122;SDS011;67376;44.802;10.332;2023-05-10T06:01:34;3.85;;;2.67;;
78122;SDS011;67376;44.802;10.332;2023-05-10T06:04:00;4.60;;;2.55;;
78122;SDS011;67376;44.802;10.332;2023-05-10T06:06:25;4.50;;;2.58;;
78122;SDS011;67376;44.802;10.332;2023-05-10T06:08:51;7.00;;;2.60;;
78122;SDS011;67376;44.802;10.332;2023-05-10T06:11:17;3.60;;;2.28;;
78122;SDS011;67376;44.802;10.332;2023-05-10T06:13:42;4.80;;;2.67;;
78122;SDS011;67376;44.802;10.332;2023-05-10T06:16:08;3.38;;;2.60;;
78122;SDS011;67376;44.802;10.332;2023-05-10T06:18:33;2.95;;;2.10;;
78122;SDS011;67376;44.802;10.332;2023-05-10T06:20:58;5.47;;;2.80;;
78122;SDS011;67376;44.802;10.332;2023-05-10T06:23:24;4.18;;;2.50;;
78122;SDS011;67376;44.802;10.332;2023-05-10T06:25:50;4.13;;;2.42;;
78122;SDS011;67376;44.802;10.332;2023-05-10T06:28:16;3.15;;;2.38;;
78122;SDS011;67376;44.802;10.332;2023-05-10T06:30:41;3.25;;;2.58;;
78122;SDS011;67376;44.802;10.332;2023-05-10T06:33:07;3.53;;;2.33;;
78122;SDS011;67376;44.802;10.332;2023-05-10T06:35:32;5.60;;;2.22;;
78122;SDS011;67376;44.802;10.332;2023-05-10T06:37:58;2.60;;;2.15;;
78122;SDS011;67376;44.802;10.332;2023-05-10T06:40:24;3.90;;;2.22;;
78122;SDS011;67376;44.802;10.332;2023-05-10T06:42:49;3.63;;;2.55;;
78122;SDS011;67376;44.802;10.332;2023-05-10T06:45:14;4.00;;;2.60;;
78122;SDS011;67376;44.802;10.332;2023-05-10T06:47:40;3.28;;;2.38;;
78122;SDS011;67376;44.802;10.332;2023-05-10T06:50:07;4.47;;;2.53;;
78122;SDS011;67376;44.802;10.332;2023-05-10T06:52:33;2.63;;;2.08;;
78122;SDS011;67376;44.802;10.332;2023-05-10T06:54:58;3.20;;;2.33;;
78122;SDS011;67376;44.802;10.332;2023-05-10T06:57:23;3.65;;;2.30;;
78122;SDS011;67376;44.802;10.332;2023-05-10T06:59:49;5.18;;;2.47;;
78122;SDS011;67376;44.802;10.332;2023-05-10T07:02:15;5.65;;;2.63;;
78122;SDS011;67376;44.802;10.332;2023-05-10T07:04:40;3.38;;;2.40;;
78122;SDS011;67376;44.802;10.332;2023-05-10T07:07:06;2.90;;;2.17;;
78122;SDS011;67376;44.802;10.332;2023-05-10T07:09:31;3.28;;;2.20;;
78122;SDS011;67376;44.802;10.332;2023-05-10T07:11:57;6.15;;;2.50;;
78122;SDS011;67376;44.802;10.332;2023-05-10T07:14:22;6.00;;;2.50;;
78122;SDS011;67376;44.802;10.332;2023-05-10T07:16:48;4.97;;;2.30;;
78122;SDS011;67376;44.802;10.332;2023-05-10T07:19:13;4.10;;;2.30;;
78122;SDS011;67376;44.802;10.332;2023-05-10T07:21:39;3.90;;;2.40;;
78122;SDS011;67376;44.802;10.332;2023-05-10T07:24:07;4.15;;;2.30;;
78122;SDS011;67376;44.802;10.332;2023-05-10T07:26:33;5.25;;;2.85;;
78122;SDS011;67376;44.802;10.332;2023-05-10T07:28:58;3.83;;;2.60;;
78122;SDS011;67376;44.802;10.332;2023-05-10T07:31:23;4.32;;;2.30;;
78122;SDS011;67376;44.802;10.332;2023-05-10T07:33:49;5.18;;;2.67;;
78122;SDS011;67376;44.802;10.332;2023-05-10T07:36:14;3.40;;;2.35;;
78122;SDS011;67376;44.802;10.332;2023-05-10T07:38:39;3.65;;;2.60;;
78122;SDS011;67376;44.802;10.332;2023-05-10T07:41:05;4.45;;;2.38;;
78122;SDS011;67376;44.802;10.332;2023-05-10T07:43:30;6.38;;;2.10;;
78122;SDS011;67376;44.802;10.332;2023-05-10T07:45:56;3.72;;;2.25;;
78122;SDS011;67376;44.802;10.332;2023-05-10T07:48:22;4.07;;;2.10;;
78122;SDS011;67376;44.802;10.332;2023-05-10T07:50:47;3.67;;;2.45;;
78122;SDS011;67376;44.802;10.332;2023-05-10T07:53:13;4.00;;;2.17;;
78122;SDS011;67376;44.802;10.332;2023-05-10T07:55:38;4.57;;;2.60;;
78122;SDS011;67376;44.802;10.332;2023-05-10T07:58:04;5.70;;;2.60;;
78122;SDS011;67376;44.802;10.332;2023-05-10T08:00:29;4.10;;;2.53;;
78122;SDS011;67376;44.802;10.332;2023-05-10T08:02:54;3.67;;;2.20;;
78122;SDS011;67376;44.802;10.332;2023-05-10T08:05:20;2.67;;;1.98;;
78122;SDS011;67376;44.802;10.332;2023-05-10T08:07:45;5.38;;;2.47;;
78122;SDS011;67376;44.802;10.332;2023-05-10T08:10:10;3.55;;;2.50;;
78122;SDS011;67376;44.802;10.332;2023-05-10T08:12:36;3.30;;;2.05;;
78122;SDS011;67376;44.802;10.332;2023-05-10T08:15:02;3.88;;;2.20;;
78122;SDS011;67376;44.802;10.332;2023-05-10T08:17:28;4.70;;;2.40;;
78122;SDS011;67376;44.802;10.332;2023-05-10T08:19:53;2.97;;;2.30;;
78122;SDS011;67376;44.802;10.332;2023-05-10T08:22:18;3.38;;;2.30;;
78122;SDS011;67376;44.802;10.332;2023-05-10T08:24:44;4.00;;;2.55;;
78122;SDS011;67376;44.802;10.332;2023-05-10T08:27:10;3.78;;;2.20;;
78122;SDS011;67376;44.802;10.332;2023-05-10T08:29:35;3.10;;;2.17;;
78122;SDS011;67376;44.802;10.332;2023-05-10T08:32:02;4.07;;;2.38;;
78122;SDS011;67376;44.802;10.332;2023-05-10T08:34:27;4.03;;;2.22;;
78122;SDS011;67376;44.802;10.332;2023-05-10T08:36:53;3.95;;;2.30;;
78122;SDS011;67376;44.802;10.332;2023-05-10T08:39:18;3.50;;;2.22;;
78122;SDS011;67376;44.802;10.332;2023-05-10T08:41:44;5.22;;;3.13;;
78122;SDS011;67376;44.802;10.332;2023-05-10T08:44:11;3.65;;;2.03;;
78122;SDS011;67376;44.802;10.332;2023-05-10T08:46:37;4.43;;;2.20;;
78122;SDS011;67376;44.802;10.332;2023-05-10T08:49:08;4.07;;;2.20;;
78122;SDS011;67376;44.802;10.332;2023-05-10T08:51:38;3.83;;;2.10;;
78122;SDS011;67376;44.802;10.332;2023-05-10T08:54:08;4.15;;;2.53;;
78122;SDS011;67376;44.802;10.332;2023-05-10T08:56:34;4.60;;;2.80;;
78122;SDS011;67376;44.802;10.332;2023-05-10T08:59:01;5.13;;;2.45;;
78122;SDS011;67376;44.802;10.332;2023-05-10T09:01:26;3.20;;;2.13;;
78122;SDS011;67376;44.802;10.332;2023-05-10T09:03:52;3.53;;;2.40;;
78122;SDS011;67376;44.802;10.332;2023-05-10T09:06:18;3.67;;;2.30;;
78122;SDS011;67376;44.802;10.332;2023-05-10T09:08:44;3.75;;;2.10;;
78122;SDS011;67376;44.802;10.332;2023-05-10T09:11:09;4.60;;;2.17;;
78122;SDS011;67376;44.802;10.332;2023-05-10T09:13:36;4.50;;;2.28;;
78122;SDS011;67376;44.802;10.332;2023-05-10T09:16:05;4.88;;;2.28;;
78122;SDS011;67376;44.802;10.332;2023-05-10T09:20:55;3.17;;;2.10;;
78122;SDS011;67376;44.802;10.332;2023-05-10T09:23:21;4.30;;;2.22;;
78122;SDS011;67376;44.802;10.332;2023-05-10T09:25:46;4.00;;;2.17;;
78122;SDS011;67376;44.802;10.332;2023-05-10T09:28:12;6.22;;;2.25;;
78122;SDS011;67376;44.802;10.332;2023-05-10T09:30:37;3.67;;;2.15;;
78122;SDS011;67376;44.802;10.332;2023-05-10T09:33:04;6.43;;;2.50;;
78122;SDS011;67376;44.802;10.332;2023-05-10T09:35:30;3.40;;;1.92;;
78122;SDS011;67376;44.802;10.332;2023-05-10T09:37:59;6.57;;;2.70;;
78122;SDS011;67376;44.802;10.332;2023-05-10T09:40:29;3.17;;;2.08;;
78122;SDS011;67376;44.802;10.332;2023-05-10T09:42:56;5.57;;;2.10;;
78122;SDS011;67376;44.802;10.332;2023-05-10T09:45:27;5.18;;;2.00;;
78122;SDS011;67376;44.802;10.332;2023-05-10T09:47:53;3.30;;;2.03;;
78122;SDS011;67376;44.802;10.332;2023-05-10T09:50:19;6.10;;;2.75;;
78122;SDS011;67376;44.802;10.332;2023-05-10T09:55:12;3.55;;;2.20;;
78122;SDS011;67376;44.802;10.332;2023-05-10T09:57:37;3.17;;;2.13;;
78122;SDS011;67376;44.802;10.332;2023-05-10T10:00:04;3.85;;;2.25;;
78122;SDS011;67376;44.802;10.332;2023-05-10T10:02:31;6.95;;;2.47;;
78122;SDS011;67376;44.802;10.332;2023-05-10T10:04:56;3.15;;;2.30;;
78122;SDS011;67376;44.802;10.332;2023-05-10T10:07:22;3.97;;;2.15;;
78122;SDS011;67376;44.802;10.332;2023-05-10T10:09:52;3.13;;;2.22;;
78122;SDS011;67376;44.802;10.332;2023-05-10T10:12:18;4.95;;;2.25;;
78122;SDS011;67376;44.802;10.332;2023-05-10T10:14:45;3.13;;;2.30;;
78122;SDS011;67376;44.802;10.332;2023-05-10T10:17:12;3.25;;;2.15;;
78122;SDS011;67376;44.802;10.332;2023-05-10T10:19:37;6.13;;;2.55;;
78122;SDS011;67376;44.802;10.332;2023-05-10T10:22:03;6.28;;;2.30;;
78122;SDS011;67376;44.802;10.332;2023-05-10T10:24:29;4.40;;;2.10;;
78122;SDS011;67376;44.802;10.332;2023-05-10T10:26:55;3.60;;;2.22;;
78122;SDS011;67376;44.802;10.332;2023-05-10T10:29:51;5.40;;;2.10;;
78122;SDS011;67376;44.802;10.332;2023-05-10T10:34:58;2.25;;;1.75;;
78122;SDS011;67376;44.802;10.332;2023-05-10T10:37:40;3.88;;;2.10;;
78122;SDS011;67376;44.802;10.332;2023-05-10T10:42:57;4.15;;;2.30;;
78122;SDS011;67376;44.802;10.332;2023-05-10T10:45:43;3.47;;;2.13;;
78122;SDS011;67376;44.802;10.332;2023-05-10T10:48:29;4.28;;;2.30;;
78122;SDS011;67376;44.802;10.332;2023-05-10T10:50:57;3.75;;;2.20;;
78122;SDS011;67376;44.802;10.332;2023-05-10T10:53:28;3.55;;;2.20;;
78122;SDS011;67376;44.802;10.332;2023-05-10T10:56:06;4.00;;;2.08;;
78122;SDS011;67376;44.802;10.332;2023-05-10T10:58:36;3.92;;;2.28;;
78122;SDS011;67376;44.802;10.332;2023-05-10T11:01:12;3.58;;;2.00;;
78122;SDS011;67376;44.802;10.332;2023-05-10T11:03:39;3.25;;;1.95;;
78122;SDS011;67376;44.802;10.332;2023-05-10T11:06:05;2.92;;;1.80;;
78122;SDS011;67376;44.802;10.332;2023-05-10T11:08:31;3.72;;;2.00;;
78122;SDS011;67376;44.802;10.332;2023-05-10T11:16:16;3.10;;;2.15;;
78122;SDS011;67376;44.802;10.332;2023-05-10T11:18:55;3.88;;;2.30;;
78122;SDS011;67376;44.802;10.332;2023-05-10T11:21:23;4.90;;;2.22;;
78122;SDS011;67376;44.802;10.332;2023-05-10T11:23:50;4.18;;;2.05;;
78122;SDS011;67376;44.802;10.332;2023-05-10T11:26:22;4.22;;;2.13;;
78122;SDS011;67376;44.802;10.332;2023-05-10T11:28:51;3.45;;;2.30;;
78122;SDS011;67376;44.802;10.332;2023-05-10T11:31:19;7.32;;;2.20;;
78122;SDS011;67376;44.802;10.332;2023-05-10T11:33:52;3.58;;;2.10;;
78122;SDS011;67376;44.802;10.332;2023-05-10T11:36:28;2.63;;;1.95;;
78122;SDS011;67376;44.802;10.332;2023-05-10T11:38:57;4.25;;;2.10;;
78122;SDS011;67376;44.802;10.332;2023-05-10T11:41:23;3.88;;;2.38;;
78122;SDS011;67376;44.802;10.332;2023-05-10T11:43:49;3.63;;;1.92;;
78122;SDS011;67376;44.802;10.332;2023-05-10T11:46:17;3.97;;;2.08;;
78122;SDS011;67376;44.802;10.332;2023-05-10T11:48:45;3.22;;;1.98;;
78122;SDS011;67376;44.802;10.332;2023-05-10T11:51:11;4.60;;;2.40;;
78122;SDS011;67376;44.802;10.332;2023-05-10T11:53:37;5.60;;;2.33;;
78122;SDS011;67376;44.802;10.332;2023-05-10T11:56:12;3.38;;;2.00;;
78122;SDS011;67376;44.802;10.332;2023-05-10T11:58:37;3.50;;;2.03;;
78122;SDS011;67376;44.802;10.332;2023-05-10T12:01:04;3.50;;;2.10;;
78122;SDS011;67376;44.802;10.332;2023-05-10T12:03:31;5.72;;;2.63;;
78122;SDS011;67376;44.802;10.332;2023-05-10T12:05:57;2.92;;;2.03;;
78122;SDS011;67376;44.802;10.332;2023-05-10T12:08:26;5.22;;;2.30;;
78122;SDS011;67376;44.802;10.332;2023-05-10T12:10:53;5.75;;;2.15;;
78122;SDS011;67376;44.802;10.332;2023-05-10T12:13:28;2.80;;;2.20;;
78122;SDS011;67376;44.802;10.332;2023-05-10T12:15:54;3.40;;;2.00;;
78122;SDS011;67376;44.802;10.332;2023-05-10T12:20:49;3.20;;;2.17;;
78122;SDS011;67376;44.802;10.332;2023-05-10T12:23:17;3.13;;;2.13;;
78122;SDS011;67376;44.802;10.332;2023-05-10T12:25:44;4.82;;;2.47;;
78122;SDS011;67376;44.802;10.332;2023-05-10T12:28:10;3.50;;;2.20;;
78122;SDS011;67376;44.802;10.332;2023-05-10T12:30:36;4.38;;;1.88;;
78122;SDS011;67376;44.802;10.332;2023-05-10T12:33:07;3.05;;;2.33;;
78122;SDS011;67376;44.802;10.332;2023-05-10T12:35:33;3.20;;;2.03;;
78122;SDS011;67376;44.802;10.332;2023-05-10T12:41:14;2.83;;;2.00;;
78122;SDS011;67376;44.802;10.332;2023-05-10T12:43:41;3.88;;;2.35;;
78122;SDS011;67376;44.802;10.332;2023-05-10T12:48:39;3.40;;;2.40;;
78122;SDS011;67376;44.802;10.332;2023-05-10T12:51:06;4.13;;;2.50;;
78122;SDS011;67376;44.802;10.332;2023-05-10T12:53:34;3.00;;;2.10;;
78122;SDS011;67376;44.802;10.332;2023-05-10T12:56:00;4.47;;;2.22;;
78122;SDS011;67376;44.802;10.332;2023-05-10T12:58:25;2.92;;;2.20;;
78122;SDS011;67376;44.802;10.332;2023-05-10T13:00:50;4.47;;;2.08;;
78122;SDS011;67376;44.802;10.332;2023-05-10T13:03:16;3.53;;;2.22;;
78122;SDS011;67376;44.802;10.332;2023-05-10T13:05:42;3.25;;;2.05;;
78122;SDS011;67376;44.802;10.332;2023-05-10T13:08:08;4.28;;;2.20;;
78122;SDS011;67376;44.802;10.332;2023-05-10T13:10:33;3.50;;;2.40;;
78122;SDS011;67376;44.802;10.332;2023-05-10T13:12:58;4.32;;;2.13;;
78122;SDS011;67376;44.802;10.332;2023-05-10T13:15:24;2.72;;;1.98;;
78122;SDS011;67376;44.802;10.332;2023-05-10T13:17:50;4.93;;;2.10;;
78122;SDS011;67376;44.802;10.332;2023-05-10T13:20:16;2.80;;;2.13;;
78122;SDS011;67376;44.802;10.332;2023-05-10T13:22:45;3.20;;;2.00;;
78122;SDS011;67376;44.802;10.332;2023-05-10T13:25:11;2.92;;;2.00;;
78122;SDS011;67376;44.802;10.332;2023-05-10T13:27:37;2.25;;;2.00;;
78122;SDS011;67376;44.802;10.332;2023-05-10T13:30:04;3.80;;;2.08;;
78122;SDS011;67376;44.802;10.332;2023-05-10T13:32:31;2.63;;;1.80;;
78122;SDS011;67376;44.802;10.332;2023-05-10T13:34:56;3.65;;;1.95;;
78122;SDS011;67376;44.802;10.332;2023-05-10T13:37:21;3.75;;;2.20;;
78122;SDS011;67376;44.802;10.332;2023-05-10T13:39:47;4.50;;;2.10;;
78122;SDS011;67376;44.802;10.332;2023-05-10T13:42:13;3.70;;;2.30;;
78122;SDS011;67376;44.802;10.332;2023-05-10T13:44:38;2.63;;;2.05;;
78122;SDS011;67376;44.802;10.332;2023-05-10T13:47:04;3.70;;;2.25;;
78122;SDS011;67376;44.802;10.332;2023-05-10T13:49:30;2.25;;;1.80;;
78122;SDS011;67376;44.802;10.332;2023-05-10T13:51:55;2.50;;;1.83;;
78122;SDS011;67376;44.802;10.332;2023-05-10T13:54:21;4.30;;;2.17;;
78122;SDS011;67376;44.802;10.332;2023-05-10T13:56:47;3.25;;;2.10;;
78122;SDS011;67376;44.802;10.332;2023-05-10T13:59:13;3.15;;;2.10;;
78122;SDS011;67376;44.802;10.332;2023-05-10T14:01:39;2.47;;;1.95;;
78122;SDS011;67376;44.802;10.332;2023-05-10T14:04:10;3.80;;;2.42;;
78122;SDS011;67376;44.802;10.332;2023-05-10T14:06:36;2.25;;;1.60;;
78122;SDS011;67376;44.802;10.332;2023-05-10T14:09:02;4.30;;;2.10;;
78122;SDS011;67376;44.802;10.332;2023-05-10T14:11:28;4.43;;;2.13;;
78122;SDS011;67376;44.802;10.332;2023-05-10T14:13:53;2.63;;;1.98;;
78122;SDS011;67376;44.802;10.332;2023-05-10T14:16:19;4.20;;;2.10;;
78122;SDS011;67376;44.802;10.332;2023-05-10T14:18:45;2.90;;;2.15;;
78122;SDS011;67376;44.802;10.332;2023-05-10T14:21:11;2.97;;;2.20;;
78122;SDS011;67376;44.802;10.332;2023-05-10T14:23:36;2.05;;;1.70;;
78122;SDS011;67376;44.802;10.332;2023-05-10T14:26:02;2.20;;;1.70;;
78122;SDS011;67376;44.802;10.332;2023-05-10T14:28:27;2.65;;;2.00;;
78122;SDS011;67376;44.802;10.332;2023-05-10T14:30:53;5.40;;;2.25;;
78122;SDS011;67376;44.802;10.332;2023-05-10T14:33:18;3.05;;;2.10;;
78122;SDS011;67376;44.802;10.332;2023-05-10T14:35:44;2.65;;;1.95;;
78122;SDS011;67376;44.802;10.332;2023-05-10T14:38:10;3.17;;;1.95;;
78122;SDS011;67376;44.802;10.332;2023-05-10T14:40:36;4.55;;;2.00;;
78122;SDS011;67376;44.802;10.332;2023-05-10T14:43:01;2.03;;;1.77;;
78122;SDS011;67376;44.802;10.332;2023-05-10T14:45:26;3.42;;;2.22;;
78122;SDS011;67376;44.802;10.332;2023-05-10T14:47:52;2.40;;;1.73;;
78122;SDS011;67376;44.802;10.332;2023-05-10T14:50:17;3.05;;;2.10;;
78122;SDS011;67376;44.802;10.332;2023-05-10T14:52:43;3.40;;;2.28;;
78122;SDS011;67376;44.802;10.332;2023-05-10T14:55:09;3.42;;;2.10;;
78122;SDS011;67376;44.802;10.332;2023-05-10T14:57:34;2.80;;;2.15;;
78122;SDS011;67376;44.802;10.332;2023-05-10T15:00:00;2.65;;;2.05;;
78122;SDS011;67376;44.802;10.332;2023-05-10T15:02:25;3.30;;;1.98;;
78122;SDS011;67376;44.802;10.332;2023-05-10T15:04:51;2.58;;;2.03;;
78122;SDS011;67376;44.802;10.332;2023-05-10T15:07:16;3.15;;;2.25;;
78122;SDS011;67376;44.802;10.332;2023-05-10T15:09:43;3.30;;;2.00;;
78122;SDS011;67376;44.802;10.332;2023-05-10T15:12:09;3.83;;;2.08;;
78122;SDS011;67376;44.802;10.332;2023-05-10T15:14:35;4.07;;;2.22;;
78122;SDS011;67376;44.802;10.332;2023-05-10T15:17:01;3.13;;;2.17;;